Time;durP1;ratioP1;P1;durP2;ratioP2;P2;SDS_P1;SDS_P2;PMS_P1;PMS_P2;Temp;Humidity;BMP_temperature;BMP_pressure;BME280_temperature;BME280_humidity;BME280_pressure;Samples;Min_cycle;Max_cycle;Signal;HPM_P1;HPM_P2
2021/09/24 00:00:00;;;;;;;12.18;5.28;;;;;;;;;;2081491;28;20670;-63
2021/09/24 00:01:02;;;;;;;13.07;5.30;;;;;;;;;;2078470;28;20264;-65
2021/09/24 00:02:02;;;;;;;7.28;4.15;;;;;;;;;;2073986;28;20201;-63
2021/09/24 00:03:02;;;;;;;11.30;5.15;;;;;;;;;;2073066;28;20192;-65
2021/09/24 00:04:03;;;;;;;9.57;5.35;;;;;;;;;;2082281;28;20227;-63
2021/09/24 00:05:03;;;;;;;17.02;5.57;;;;;;;;;;2082476;28;20169;-63
2021/09/24 00:06:04;;;;;;;12.25;5.70;;;;;;;;;;2081297;28;20179;-64
2021/09/24 00:07:05;;;;;;;11.88;5.03;;;;;;;;;;2081799;28;20203;-64
2021/09/24 00:08:05;;;;;;;7.82;4.70;;;;;;;;;;2080855;28;20294;-63
2021/09/24 00:09:05;;;;;;;12.95;4.70;;;;;;;;;;2081275;28;20644;-62
2021/09/24 00:10:06;;;;;;;11.68;4.78;;;;;;;;;;2081399;28;20684;-63
2021/09/24 00:11:07;;;;;;;12.80;5.18;;;;;;;;;;2079979;28;20251;-64
2021/09/24 00:12:07;;;;;;;15.65;6.00;;;;;;;;;;2082418;28;20190;-62
2021/09/24 00:13:07;;;;;;;12.38;4.70;;;;;;;;;;2080888;28;20169;-62
2021/09/24 00:14:08;;;;;;;11.30;4.88;;;;;;;;;;2072271;28;20181;-62
2021/09/24 00:15:10;;;;;;;10.35;5.03;;;;;;;;;;2072956;28;20177;-64
2021/09/24 00:16:10;;;;;;;14.82;5.47;;;;;;;;;;2072832;28;20169;-63
2021/09/24 00:17:12;;;;;;;14.00;5.20;;;;;;;;;;2065380;28;20169;-62
2021/09/24 00:18:12;;;;;;;10.77;5.32;;;;;;;;;;2070296;28;20230;-61
2021/09/24 00:19:13;;;;;;;9.43;5.22;;;;;;;;;;2081820;28;20163;-63
2021/09/24 00:20:13;;;;;;;10.10;4.95;;;;;;;;;;2079045;28;20653;-63
2021/09/24 00:21:13;;;;;;;9.07;4.40;;;;;;;;;;2079311;28;20204;-63
2021/09/24 00:22:14;;;;;;;12.85;5.03;;;;;;;;;;2081873;28;20241;-63
2021/09/24 00:23:14;;;;;;;12.75;4.90;;;;;;;;;;2082406;28;20188;-63
2021/09/24 00:24:14;;;;;;;10.95;4.35;;;;;;;;;;2081491;28;20171;-62
2021/09/24 00:25:15;;;;;;;14.85;5.22;;;;;;;;;;2081042;28;20187;-64
2021/09/24 00:26:15;;;;;;;11.43;4.60;;;;;;;;;;2081371;28;20246;-64
2021/09/24 00:27:16;;;;;;;12.85;4.65;;;;;;;;;;2073043;28;20180;-63
2021/09/24 00:28:16;;;;;;;8.50;4.38;;;;;;;;;;2072222;28;20213;-63
2021/09/24 00:29:16;;;;;;;10.00;4.30;;;;;;;;;;2072820;28;20219;-63
2021/09/24 00:30:16;;;;;;;9.80;4.53;;;;;;;;;;2081227;28;20263;-62
2021/09/24 00:31:17;;;;;;;11.52;4.47;;;;;;;;;;2081878;28;20603;-63
2021/09/24 00:32:21;;;;;;;11.60;4.03;;;;;;;;;;2072684;28;20165;-63
2021/09/24 00:33:21;;;;;;;9.52;4.45;;;;;;;;;;2073508;28;20235;-65
2021/09/24 00:34:22;;;;;;;12.75;4.75;;;;;;;;;;2081674;28;20204;-62
2021/09/24 00:35:22;;;;;;;8.85;4.43;;;;;;;;;;2081920;28;20202;-63
2021/09/24 00:36:22;;;;;;;15.98;4.72;;;;;;;;;;2081322;28;20184;-63
2021/09/24 00:37:22;;;;;;;14.05;4.60;;;;;;;;;;2081541;28;20168;-63
2021/09/24 00:38:23;;;;;;;14.45;4.90;;;;;;;;;;2081058;28;20200;-63
2021/09/24 00:39:24;;;;;;;9.00;4.32;;;;;;;;;;2081075;28;20180;-62
2021/09/24 00:40:24;;;;;;;14.10;5.32;;;;;;;;;;2080944;28;20222;-63
2021/09/24 00:41:24;;;;;;;9.70;4.63;;;;;;;;;;2081520;28;20179;-63
2021/09/24 00:42:24;;;;;;;9.15;4.85;;;;;;;;;;2080602;28;20203;-63
2021/09/24 00:43:25;;;;;;;6.15;4.30;;;;;;;;;;2079766;28;20198;-62
2021/09/24 00:44:28;;;;;;;7.55;4.35;;;;;;;;;;2079722;28;20172;-62
2021/09/24 00:45:28;;;;;;;8.88;4.57;;;;;;;;;;2080739;28;20168;-62
2021/09/24 00:46:29;;;;;;;13.23;5.07;;;;;;;;;;2078211;28;20283;-62
2021/09/24 00:47:29;;;;;;;7.25;4.00;;;;;;;;;;2077635;28;20184;-62
2021/09/24 00:48:29;;;;;;;7.25;4.68;;;;;;;;;;2077456;28;20202;-63
2021/09/24 00:49:30;;;;;;;10.38;4.65;;;;;;;;;;2078072;28;20184;-62
2021/09/24 00:50:30;;;;;;;12.93;4.72;;;;;;;;;;2080370;28;20195;-63
2021/09/24 00:51:30;;;;;;;10.40;4.90;;;;;;;;;;2080239;28;20164;-62
2021/09/24 00:52:31;;;;;;;9.65;4.20;;;;;;;;;;2079599;28;20172;-61
2021/09/24 00:53:31;;;;;;;12.30;4.63;;;;;;;;;;2080092;28;20172;-63
2021/09/24 00:54:32;;;;;;;11.68;4.57;;;;;;;;;;2080397;28;20532;-61
2021/09/24 00:55:32;;;;;;;12.85;5.20;;;;;;;;;;2080179;28;20951;-63
2021/09/24 00:56:32;;;;;;;12.57;4.80;;;;;;;;;;2080195;28;20226;-63
2021/09/24 00:57:33;;;;;;;14.57;5.45;;;;;;;;;;2077712;28;20593;-63
2021/09/24 00:58:33;;;;;;;9.65;4.78;;;;;;;;;;2079369;28;20219;-63
2021/09/24 00:59:34;;;;;;;10.65;4.78;;;;;;;;;;2082219;28;20684;-62
2021/09/24 01:00:34;;;;;;;8.68;4.10;;;;;;;;;;2079940;28;20191;-63
2021/09/24 01:01:34;;;;;;;10.80;4.70;;;;;;;;;;2077721;28;20184;-62
2021/09/24 01:02:34;;;;;;;8.40;4.40;;;;;;;;;;2080070;28;20216;-62
2021/09/24 01:03:35;;;;;;;10.35;4.75;;;;;;;;;;2079221;28;20172;-62
2021/09/24 01:04:35;;;;;;;12.57;4.63;;;;;;;;;;2080405;28;20171;-62
2021/09/24 01:05:36;;;;;;;8.05;4.53;;;;;;;;;;2077963;28;20187;-63
2021/09/24 01:06:36;;;;;;;9.35;4.57;;;;;;;;;;2069191;28;20201;-63
2021/09/24 01:07:37;;;;;;;9.60;4.45;;;;;;;;;;2070580;28;20233;-63
2021/09/24 01:08:38;;;;;;;12.38;4.82;;;;;;;;;;2079697;28;20253;-63
2021/09/24 01:09:38;;;;;;;9.77;4.53;;;;;;;;;;2079809;28;20172;-63
2021/09/24 01:10:38;;;;;;;9.55;4.63;;;;;;;;;;2080492;28;20175;-63
2021/09/24 01:11:39;;;;;;;11.30;4.05;;;;;;;;;;2079701;28;20655;-63
2021/09/24 01:12:39;;;;;;;11.20;4.72;;;;;;;;;;2078288;28;20176;-63
2021/09/24 01:13:39;;;;;;;11.80;4.70;;;;;;;;;;2080891;28;20198;-63
2021/09/24 01:14:40;;;;;;;8.63;4.30;;;;;;;;;;2080130;28;20603;-62
2021/09/24 01:15:40;;;;;;;12.23;4.65;;;;;;;;;;2079207;28;20657;-62
2021/09/24 01:16:40;;;;;;;12.98;4.97;;;;;;;;;;2078749;28;20173;-63
2021/09/24 01:17:41;;;;;;;7.95;4.35;;;;;;;;;;2078949;28;20220;-63
2021/09/24 01:18:41;;;;;;;12.02;4.68;;;;;;;;;;2078546;28;20239;-63
2021/09/24 01:19:41;;;;;;;8.68;4.18;;;;;;;;;;2078815;28;20624;-63
2021/09/24 01:20:42;;;;;;;11.77;4.32;;;;;;;;;;2078900;28;20652;-62
2021/09/24 01:21:42;;;;;;;9.32;4.70;;;;;;;;;;2080698;28;20319;-63
2021/09/24 01:22:43;;;;;;;9.32;4.05;;;;;;;;;;2080280;28;20179;-63
2021/09/24 01:23:43;;;;;;;9.93;4.10;;;;;;;;;;2079967;28;20184;-63
2021/09/24 01:24:43;;;;;;;12.27;5.10;;;;;;;;;;2080946;28;20663;-63
2021/09/24 01:25:44;;;;;;;9.10;4.45;;;;;;;;;;2078098;28;20750;-63
2021/09/24 01:26:52;;;;;;;11.05;4.28;;;;;;;;;;2079994;28;20613;-63
2021/09/24 01:27:52;;;;;;;7.63;4.30;;;;;;;;;;2080362;28;20561;-63
2021/09/24 01:28:56;;;;;;;6.38;3.97;;;;;;;;;;2080696;28;20188;-63
2021/09/24 01:29:56;;;;;;;13.10;4.95;;;;;;;;;;2078817;28;20298;-64
2021/09/24 01:30:56;;;;;;;8.98;4.95;;;;;;;;;;2072497;28;20169;-63
2021/09/24 01:31:57;;;;;;;8.88;4.47;;;;;;;;;;2072166;28;20181;-63
2021/09/24 01:32:57;;;;;;;9.52;5.13;;;;;;;;;;2081212;28;20608;-63
2021/09/24 01:33:57;;;;;;;12.18;4.20;;;;;;;;;;2072334;28;20256;-63
2021/09/24 01:35:02;;;;;;;15.63;5.25;;;;;;;;;;2072263;28;20275;-63
2021/09/24 01:36:03;;;;;;;15.48;4.40;;;;;;;;;;2079708;28;20180;-62
2021/09/24 01:37:03;;;;;;;9.75;3.90;;;;;;;;;;2071752;28;20288;-64
2021/09/24 01:38:03;;;;;;;8.73;4.20;;;;;;;;;;2070951;28;20283;-62
2021/09/24 01:39:05;;;;;;;9.88;4.20;;;;;;;;;;2071275;28;20637;-63
2021/09/24 01:40:12;;;;;;;6.70;4.22;;;;;;;;;;2072440;28;20600;-63
2021/09/24 01:41:12;;;;;;;4.25;3.83;;;;;;;;;;2079558;28;20168;-64
2021/09/24 01:42:12;;;;;;;6.70;4.40;;;;;;;;;;2078914;28;20214;-63
2021/09/24 01:43:13;;;;;;;12.13;4.07;;;;;;;;;;2077441;28;20226;-64
2021/09/24 01:44:13;;;;;;;8.90;4.13;;;;;;;;;;2075030;28;20662;-61
2021/09/24 01:45:13;;;;;;;10.55;4.35;;;;;;;;;;2079817;28;20523;-65
2021/09/24 01:46:14;;;;;;;8.18;4.45;;;;;;;;;;2079768;28;20180;-63
2021/09/24 01:47:14;;;;;;;9.52;4.15;;;;;;;;;;2072238;28;20192;-63
2021/09/24 01:48:14;;;;;;;13.52;4.97;;;;;;;;;;2068875;28;20271;-63
2021/09/24 01:49:14;;;;;;;10.73;5.03;;;;;;;;;;2079701;28;20629;-63
2021/09/24 01:50:15;;;;;;;14.50;5.25;;;;;;;;;;2078205;28;20838;-64
2021/09/24 01:51:15;;;;;;;11.95;4.90;;;;;;;;;;2070900;28;20165;-63
2021/09/24 01:52:15;;;;;;;10.05;4.60;;;;;;;;;;2070640;28;20220;-64
2021/09/24 01:53:16;;;;;;;6.15;4.03;;;;;;;;;;2078024;28;20211;-63
2021/09/24 01:54:18;;;;;;;10.35;4.20;;;;;;;;;;2080131;28;20187;-63
2021/09/24 01:55:18;;;;;;;9.05;4.82;;;;;;;;;;2077793;28;20206;-64
2021/09/24 01:56:21;;;;;;;9.48;4.40;;;;;;;;;;2079839;28;20555;-64
2021/09/24 01:57:21;;;;;;;7.05;4.60;;;;;;;;;;2071611;28;20540;-64
2021/09/24 01:58:21;;;;;;;12.10;4.40;;;;;;;;;;2070884;28;20213;-65
2021/09/24 01:59:21;;;;;;;6.57;4.03;;;;;;;;;;2076274;28;20192;-63
2021/09/24 02:00:22;;;;;;;9.43;4.20;;;;;;;;;;2071302;28;20172;-64
2021/09/24 02:01:22;;;;;;;7.45;3.80;;;;;;;;;;2071341;28;20550;-63
2021/09/24 02:02:22;;;;;;;7.90;4.20;;;;;;;;;;2077454;28;20518;-63
2021/09/24 02:03:22;;;;;;;9.63;4.22;;;;;;;;;;2079519;28;20738;-66
2021/09/24 02:04:23;;;;;;;8.98;4.22;;;;;;;;;;2080219;28;20653;-62
2021/09/24 02:05:23;;;;;;;6.72;4.18;;;;;;;;;;2071253;28;20185;-63
2021/09/24 02:06:23;;;;;;;10.75;4.53;;;;;;;;;;2071151;28;20193;-63
2021/09/24 02:07:24;;;;;;;9.35;4.30;;;;;;;;;;2079797;28;20172;-62
2021/09/24 02:08:24;;;;;;;9.65;4.35;;;;;;;;;;2079419;28;21049;-64
2021/09/24 02:09:24;;;;;;;10.98;4.22;;;;;;;;;;2079670;28;20160;-63
2021/09/24 02:10:24;;;;;;;8.95;4.07;;;;;;;;;;2071649;28;20688;-63
2021/09/24 02:11:25;;;;;;;12.30;4.22;;;;;;;;;;2071165;28;20169;-63
2021/09/24 02:12:25;;;;;;;13.70;5.10;;;;;;;;;;2077347;28;20636;-63
2021/09/24 02:13:25;;;;;;;15.55;5.63;;;;;;;;;;2079479;28;20706;-62
2021/09/24 02:14:25;;;;;;;7.60;4.10;;;;;;;;;;2077447;28;20181;-63
2021/09/24 02:15:26;;;;;;;9.30;4.40;;;;;;;;;;2077975;28;20182;-62
2021/09/24 02:16:26;;;;;;;12.45;4.45;;;;;;;;;;2079577;28;20663;-63
2021/09/24 02:17:27;;;;;;;8.90;4.10;;;;;;;;;;2078057;28;20629;-63
2021/09/24 02:18:27;;;;;;;10.07;4.15;;;;;;;;;;2067957;28;20223;-63
2021/09/24 02:19:27;;;;;;;10.70;4.50;;;;;;;;;;2072938;28;20196;-64
2021/09/24 02:20:27;;;;;;;8.88;4.13;;;;;;;;;;2081119;28;20168;-62
2021/09/24 02:21:28;;;;;;;12.93;3.95;;;;;;;;;;2081678;28;20194;-63
2021/09/24 02:22:28;;;;;;;9.82;4.95;;;;;;;;;;2081178;28;20180;-63
2021/09/24 02:23:28;;;;;;;10.20;4.53;;;;;;;;;;2081966;28;20172;-63
2021/09/24 02:24:29;;;;;;;6.93;4.72;;;;;;;;;;2081329;28;20188;-63
2021/09/24 02:25:29;;;;;;;6.63;4.25;;;;;;;;;;2081099;28;20199;-63
2021/09/24 02:26:29;;;;;;;11.05;4.50;;;;;;;;;;2081100;28;20176;-63
2021/09/24 02:27:30;;;;;;;7.00;4.47;;;;;;;;;;2079028;28;20176;-63
2021/09/24 02:28:31;;;;;;;9.20;4.43;;;;;;;;;;2077852;28;20628;-63
2021/09/24 02:29:31;;;;;;;9.82;4.13;;;;;;;;;;2081788;28;20260;-63
2021/09/24 02:30:31;;;;;;;13.43;5.07;;;;;;;;;;2080789;28;20649;-62
2021/09/24 02:31:31;;;;;;;8.35;4.00;;;;;;;;;;2081682;28;20184;-63
2021/09/24 02:32:32;;;;;;;11.55;5.10;;;;;;;;;;2081043;28;20184;-63
2021/09/24 02:33:32;;;;;;;8.48;4.63;;;;;;;;;;2080912;28;20191;-63
2021/09/24 02:34:32;;;;;;;14.60;5.57;;;;;;;;;;2070080;28;20786;-63
2021/09/24 02:35:33;;;;;;;9.25;5.25;;;;;;;;;;2072688;28;20204;-63
2021/09/24 02:36:33;;;;;;;12.18;5.43;;;;;;;;;;2081266;28;20191;-62
2021/09/24 02:37:33;;;;;;;12.75;5.55;;;;;;;;;;2081393;28;20271;-63
2021/09/24 02:38:34;;;;;;;9.93;4.90;;;;;;;;;;2077787;28;20231;-61
2021/09/24 02:39:34;;;;;;;15.30;5.25;;;;;;;;;;2078549;28;20183;-62
2021/09/24 02:40:34;;;;;;;11.60;5.80;;;;;;;;;;2081081;28;20176;-62
2021/09/24 02:41:35;;;;;;;13.10;5.40;;;;;;;;;;2078962;28;20184;-62
2021/09/24 02:42:35;;;;;;;10.82;5.72;;;;;;;;;;2078855;28;20176;-63
2021/09/24 02:43:35;;;;;;;8.95;5.57;;;;;;;;;;2081514;28;20184;-63
2021/09/24 02:44:35;;;;;;;13.88;5.93;;;;;;;;;;2079002;28;20175;-62
2021/09/24 02:45:36;;;;;;;11.27;4.97;;;;;;;;;;2078736;28;20250;-63
2021/09/24 02:46:36;;;;;;;14.98;5.38;;;;;;;;;;2078767;28;20195;-62
2021/09/24 02:47:37;;;;;;;8.40;5.63;;;;;;;;;;2081222;28;20176;-62
2021/09/24 02:48:37;;;;;;;11.75;5.70;;;;;;;;;;2080540;28;20695;-62
2021/09/24 02:49:37;;;;;;;12.82;5.65;;;;;;;;;;2079091;28;20176;-62
2021/09/24 02:50:38;;;;;;;13.60;5.93;;;;;;;;;;2073083;28;20195;-62
2021/09/24 02:51:38;;;;;;;9.27;5.30;;;;;;;;;;2064966;28;20586;-63
2021/09/24 02:52:38;;;;;;;9.77;4.97;;;;;;;;;;2072195;28;20164;-63
2021/09/24 02:53:39;;;;;;;12.05;5.88;;;;;;;;;;2080818;28;20654;-63
2021/09/24 02:54:39;;;;;;;13.10;5.40;;;;;;;;;;2080784;28;20210;-63
2021/09/24 02:55:39;;;;;;;11.00;5.45;;;;;;;;;;2080380;28;20273;-63
2021/09/24 02:56:39;;;;;;;13.32;5.70;;;;;;;;;;2065211;28;20202;-62
2021/09/24 02:57:39;;;;;;;14.13;5.95;;;;;;;;;;2064939;28;20173;-63
2021/09/24 02:58:40;;;;;;;14.70;5.82;;;;;;;;;;2081234;28;20200;-64
2021/09/24 02:59:40;;;;;;;15.75;6.32;;;;;;;;;;2080919;28;20242;-62
2021/09/24 03:00:40;;;;;;;14.00;5.85;;;;;;;;;;2080615;28;20164;-63
2021/09/24 03:01:41;;;;;;;15.45;5.72;;;;;;;;;;2072064;28;20197;-63
2021/09/24 03:02:41;;;;;;;13.45;6.13;;;;;;;;;;2072981;28;20199;-63
2021/09/24 03:03:41;;;;;;;8.13;5.25;;;;;;;;;;2079095;28;20184;-63
2021/09/24 03:04:42;;;;;;;14.55;6.38;;;;;;;;;;2078317;28;20188;-62
2021/09/24 03:05:42;;;;;;;8.75;5.47;;;;;;;;;;2080468;28;20176;-62
2021/09/24 03:06:42;;;;;;;9.23;6.40;;;;;;;;;;2081018;28;20203;-60
2021/09/24 03:07:42;;;;;;;14.02;6.72;;;;;;;;;;2064025;28;20192;-63
2021/09/24 03:08:43;;;;;;;13.15;5.78;;;;;;;;;;2063680;28;20666;-64
2021/09/24 03:09:43;;;;;;;11.15;6.53;;;;;;;;;;2079532;28;20210;-63
2021/09/24 03:10:43;;;;;;;9.25;4.97;;;;;;;;;;2072448;28;20161;-63
2021/09/24 03:11:43;;;;;;;13.13;6.05;;;;;;;;;;2072680;28;20223;-63
2021/09/24 03:12:44;;;;;;;12.10;6.07;;;;;;;;;;2080507;28;20176;-63
2021/09/24 03:13:44;;;;;;;10.30;5.63;;;;;;;;;;2072150;28;20646;-63
2021/09/24 03:14:44;;;;;;;11.07;6.32;;;;;;;;;;2071891;28;20604;-63
2021/09/24 03:15:45;;;;;;;8.48;5.63;;;;;;;;;;2071010;28;20181;-63
2021/09/24 03:16:45;;;;;;;14.48;6.53;;;;;;;;;;2070817;28;20201;-62
2021/09/24 03:17:45;;;;;;;13.20;6.05;;;;;;;;;;2081593;28;20176;-63
2021/09/24 03:18:47;;;;;;;15.77;6.22;;;;;;;;;;2080217;28;20668;-63
2021/09/24 03:19:47;;;;;;;19.45;6.80;;;;;;;;;;2079519;28;20613;-63
2021/09/24 03:20:47;;;;;;;16.17;7.50;;;;;;;;;;2080256;28;20176;-62
2021/09/24 03:21:48;;;;;;;12.07;6.05;;;;;;;;;;2079669;28;20565;-63
2021/09/24 03:22:48;;;;;;;14.63;6.15;;;;;;;;;;2080462;28;20287;-63
2021/09/24 03:23:49;;;;;;;13.98;6.50;;;;;;;;;;2081041;28;20290;-63
2021/09/24 03:24:49;;;;;;;16.00;6.40;;;;;;;;;;2081269;28;20180;-62
2021/09/24 03:25:49;;;;;;;10.70;5.75;;;;;;;;;;2072707;28;20682;-63
2021/09/24 03:26:50;;;;;;;10.13;5.68;;;;;;;;;;2073098;28;20900;-63
2021/09/24 03:27:50;;;;;;;9.95;6.68;;;;;;;;;;2079108;28;20176;-62
2021/09/24 03:28:50;;;;;;;15.27;6.47;;;;;;;;;;2079946;28;20189;-63
2021/09/24 03:29:51;;;;;;;17.65;6.50;;;;;;;;;;2079068;28;20196;-62
2021/09/24 03:30:51;;;;;;;12.73;6.15;;;;;;;;;;2079477;28;20604;-63
2021/09/24 03:31:51;;;;;;;10.80;6.28;;;;;;;;;;2081442;28;20180;-63
2021/09/24 03:32:52;;;;;;;10.63;6.25;;;;;;;;;;2079051;28;20211;-62
2021/09/24 03:33:52;;;;;;;13.63;6.97;;;;;;;;;;2080348;28;20177;-62
2021/09/24 03:34:52;;;;;;;13.43;7.18;;;;;;;;;;2081331;28;20617;-63
2021/09/24 03:35:52;;;;;;;10.98;6.93;;;;;;;;;;2078681;28;20180;-63
2021/09/24 03:36:53;;;;;;;13.10;6.88;;;;;;;;;;2072052;28;20176;-63
2021/09/24 03:37:53;;;;;;;12.77;7.30;;;;;;;;;;2072784;28;20169;-58
2021/09/24 03:38:53;;;;;;;12.02;6.70;;;;;;;;;;2078490;28;20248;-63
2021/09/24 03:39:53;;;;;;;13.07;7.28;;;;;;;;;;2080658;28;20191;-63
2021/09/24 03:40:54;;;;;;;13.55;7.30;;;;;;;;;;2080700;28;20625;-63
2021/09/24 03:41:55;;;;;;;15.95;7.47;;;;;;;;;;2080437;28;20180;-63
2021/09/24 03:42:58;;;;;;;11.13;7.05;;;;;;;;;;2081309;28;20168;-63
2021/09/24 03:43:58;;;;;;;12.02;7.15;;;;;;;;;;2080274;28;20175;-62
2021/09/24 03:44:58;;;;;;;16.52;8.38;;;;;;;;;;2080722;28;20183;-63
2021/09/24 03:45:58;;;;;;;12.13;6.97;;;;;;;;;;2081313;28;20595;-63
2021/09/24 03:46:59;;;;;;;12.02;7.25;;;;;;;;;;2080510;28;20180;-63
2021/09/24 03:47:59;;;;;;;14.60;7.13;;;;;;;;;;2080456;28;20534;-63
2021/09/24 03:48:59;;;;;;;11.55;7.63;;;;;;;;;;2082049;28;20226;-63
2021/09/24 03:49:59;;;;;;;14.93;7.60;;;;;;;;;;2081879;28;20183;-63
2021/09/24 03:51:00;;;;;;;13.32;7.28;;;;;;;;;;2082032;28;20164;-63
2021/09/24 03:52:02;;;;;;;13.45;7.20;;;;;;;;;;2081726;28;20542;-63
2021/09/24 03:53:02;;;;;;;11.00;6.70;;;;;;;;;;2073232;28;20564;-62
2021/09/24 03:54:02;;;;;;;15.68;7.25;;;;;;;;;;2072792;28;20255;-63
2021/09/24 03:55:03;;;;;;;16.55;7.07;;;;;;;;;;2081812;28;20180;-63
2021/09/24 03:56:04;;;;;;;13.18;6.57;;;;;;;;;;2081009;28;20190;-63
2021/09/24 03:57:04;;;;;;;11.15;6.63;;;;;;;;;;2081388;28;20647;-64
2021/09/24 03:58:04;;;;;;;16.52;6.63;;;;;;;;;;2080949;28;20291;-63
2021/09/24 03:59:04;;;;;;;12.75;6.53;;;;;;;;;;2083872;28;20608;-64
2021/09/24 04:00:05;;;;;;;11.55;6.25;;;;;;;;;;2076825;28;20737;-64
2021/09/24 04:01:12;;;;;;;11.63;6.07;;;;;;;;;;2074626;28;20248;-64
2021/09/24 04:02:12;;;;;;;11.52;6.57;;;;;;;;;;2081107;28;20168;-64
2021/09/24 04:03:12;;;;;;;12.27;7.00;;;;;;;;;;2081170;28;20180;-64
2021/09/24 04:04:13;;;;;;;12.30;6.68;;;;;;;;;;2078426;28;20711;-64
2021/09/24 04:05:13;;;;;;;9.05;7.13;;;;;;;;;;2078337;28;20547;-63
2021/09/24 04:06:13;;;;;;;11.25;6.93;;;;;;;;;;2071748;28;20727;-64
2021/09/24 04:07:15;;;;;;;14.02;7.28;;;;;;;;;;2071722;28;20267;-64
2021/09/24 04:08:15;;;;;;;14.00;7.25;;;;;;;;;;2078352;28;20263;-64
2021/09/24 04:09:16;;;;;;;13.85;7.18;;;;;;;;;;2080591;28;20666;-64
2021/09/24 04:10:16;;;;;;;10.52;6.82;;;;;;;;;;2080669;28;20255;-64
2021/09/24 04:11:16;;;;;;;12.43;7.20;;;;;;;;;;2079806;28;20307;-64
2021/09/24 04:12:16;;;;;;;13.80;7.32;;;;;;;;;;2073467;28;20189;-64
2021/09/24 04:13:17;;;;;;;12.80;7.40;;;;;;;;;;2072046;28;20177;-64
2021/09/24 04:14:17;;;;;;;16.35;6.63;;;;;;;;;;2078502;28;20175;-64
2021/09/24 04:15:17;;;;;;;13.43;7.47;;;;;;;;;;2078780;28;20188;-64
2021/09/24 04:16:18;;;;;;;10.82;6.55;;;;;;;;;;2080438;28;20248;-64
2021/09/24 04:17:18;;;;;;;9.90;6.00;;;;;;;;;;2080138;28;20168;-64
2021/09/24 04:18:18;;;;;;;11.38;6.90;;;;;;;;;;2080164;28;20203;-64
2021/09/24 04:19:20;;;;;;;11.57;7.25;;;;;;;;;;2072051;28;20235;-64
2021/09/24 04:20:20;;;;;;;11.30;7.35;;;;;;;;;;2072135;28;20265;-64
2021/09/24 04:21:20;;;;;;;13.20;7.07;;;;;;;;;;2081037;28;20179;-64
2021/09/24 04:22:20;;;;;;;14.05;8.27;;;;;;;;;;2080158;28;20172;-64
2021/09/24 04:23:21;;;;;;;15.23;6.97;;;;;;;;;;2080141;28;20258;-64
2021/09/24 04:24:21;;;;;;;19.30;8.25;;;;;;;;;;2070539;28;20232;-64
2021/09/24 04:25:21;;;;;;;12.77;7.05;;;;;;;;;;2071278;28;20173;-64
2021/09/24 04:26:21;;;;;;;19.52;7.28;;;;;;;;;;2079277;28;20184;-64
2021/09/24 04:27:22;;;;;;;12.27;7.32;;;;;;;;;;2080535;28;20263;-64
2021/09/24 04:28:22;;;;;;;13.32;7.38;;;;;;;;;;2079788;28;20215;-64
2021/09/24 04:29:22;;;;;;;13.75;7.43;;;;;;;;;;2080600;28;20172;-64
2021/09/24 04:30:23;;;;;;;14.38;6.80;;;;;;;;;;2079549;28;20564;-64
2021/09/24 04:31:23;;;;;;;12.65;7.50;;;;;;;;;;2078292;28;20187;-64
2021/09/24 04:32:24;;;;;;;15.15;8.00;;;;;;;;;;2078646;28;20199;-63
2021/09/24 04:33:24;;;;;;;17.92;7.60;;;;;;;;;;2077514;28;20188;-64
2021/09/24 04:34:24;;;;;;;14.82;8.13;;;;;;;;;;2080201;28;20251;-64
2021/09/24 04:35:25;;;;;;;11.30;7.25;;;;;;;;;;2072488;28;20161;-64
2021/09/24 04:36:25;;;;;;;14.40;7.55;;;;;;;;;;2071860;28;20185;-64
2021/09/24 04:37:25;;;;;;;14.40;7.25;;;;;;;;;;2078481;28;20183;-64
2021/09/24 04:38:25;;;;;;;12.68;7.95;;;;;;;;;;2079799;28;20191;-64
2021/09/24 04:39:26;;;;;;;12.10;7.10;;;;;;;;;;2071700;28;20623;-64
2021/09/24 04:40:26;;;;;;;11.88;7.03;;;;;;;;;;2072190;28;20165;-64
2021/09/24 04:41:26;;;;;;;13.90;7.68;;;;;;;;;;2079564;28;20592;-63
2021/09/24 04:42:27;;;;;;;12.80;7.28;;;;;;;;;;2080045;28;20176;-63
2021/09/24 04:43:27;;;;;;;9.77;7.53;;;;;;;;;;2080540;28;20172;-64
2021/09/24 04:44:27;;;;;;;11.15;7.80;;;;;;;;;;2080220;28;20238;-63
2021/09/24 04:45:27;;;;;;;11.90;7.75;;;;;;;;;;2079953;28;20183;-64
2021/09/24 04:46:28;;;;;;;13.98;7.78;;;;;;;;;;2080209;28;20255;-64
2021/09/24 04:47:28;;;;;;;15.82;7.07;;;;;;;;;;2080004;28;20211;-64
2021/09/24 04:48:31;;;;;;;18.45;8.07;;;;;;;;;;2077720;28;20212;-65
2021/09/24 04:49:31;;;;;;;14.82;8.00;;;;;;;;;;2080085;28;20177;-65
2021/09/24 04:50:32;;;;;;;13.10;8.13;;;;;;;;;;2077831;28;20169;-64
2021/09/24 04:51:32;;;;;;;11.35;8.25;;;;;;;;;;2080850;28;20793;-64
2021/09/24 04:52:32;;;;;;;10.85;7.78;;;;;;;;;;2077637;28;20184;-64
2021/09/24 04:53:32;;;;;;;15.55;7.75;;;;;;;;;;2080270;28;20570;-64
2021/09/24 04:54:33;;;;;;;14.95;7.90;;;;;;;;;;2077646;28;20176;-64
2021/09/24 04:55:33;;;;;;;15.60;8.23;;;;;;;;;;2081226;28;20191;-64
2021/09/24 04:56:33;;;;;;;12.70;7.80;;;;;;;;;;2072455;28;20553;-64
2021/09/24 04:57:34;;;;;;;17.05;8.07;;;;;;;;;;2072583;28;20173;-65
2021/09/24 04:58:34;;;;;;;11.07;7.85;;;;;;;;;;2080809;28;20207;-64
2021/09/24 04:59:34;;;;;;;12.50;8.00;;;;;;;;;;2081600;28;20180;-66
2021/09/24 05:00:35;;;;;;;15.55;8.02;;;;;;;;;;2078949;28;20198;-61
2021/09/24 05:01:35;;;;;;;15.68;8.40;;;;;;;;;;2081178;28;20172;-62
2021/09/24 05:02:35;;;;;;;14.48;8.85;;;;;;;;;;2081227;28;20215;-61
2021/09/24 05:03:35;;;;;;;20.95;8.40;;;;;;;;;;2081057;28;20176;-64
2021/09/24 05:04:35;;;;;;;15.65;9.00;;;;;;;;;;2078654;28;20258;-63
2021/09/24 05:05:36;;;;;;;12.70;8.82;;;;;;;;;;2078185;28;20184;-62
2021/09/24 05:06:36;;;;;;;9.85;7.70;;;;;;;;;;2076453;28;20191;-62
2021/09/24 05:07:37;;;;;;;16.63;8.80;;;;;;;;;;2080368;28;20234;-65
2021/09/24 05:08:37;;;;;;;17.42;8.23;;;;;;;;;;2079170;28;20200;-67
2021/09/24 05:09:37;;;;;;;14.50;9.43;;;;;;;;;;2070775;28;20603;-65
2021/09/24 05:10:38;;;;;;;16.48;8.30;;;;;;;;;;2064147;28;20162;-65
2021/09/24 05:11:38;;;;;;;15.43;8.48;;;;;;;;;;2072327;28;20204;-66
2021/09/24 05:12:38;;;;;;;16.23;8.20;;;;;;;;;;2080505;28;20180;-65
2021/09/24 05:13:38;;;;;;;13.30;8.68;;;;;;;;;;2081147;28;20187;-67
2021/09/24 05:14:39;;;;;;;11.07;8.45;;;;;;;;;;2081166;28;20186;-65
2021/09/24 05:15:39;;;;;;;13.65;9.23;;;;;;;;;;2080509;28;20165;-67
2021/09/24 05:16:39;;;;;;;12.45;8.63;;;;;;;;;;2081250;28;20222;-66
2021/09/24 05:17:40;;;;;;;12.63;8.70;;;;;;;;;;2080726;28;20247;-66
2021/09/24 05:18:41;;;;;;;13.27;8.35;;;;;;;;;;2080546;28;20223;-66
2021/09/24 05:19:41;;;;;;;11.77;8.52;;;;;;;;;;2080965;28;20180;-68
2021/09/24 05:20:41;;;;;;;13.05;8.52;;;;;;;;;;2072515;28;20172;-64
2021/09/24 05:21:42;;;;;;;14.52;8.45;;;;;;;;;;2072291;28;20366;-64
2021/09/24 05:22:42;;;;;;;14.73;8.75;;;;;;;;;;2081144;28;20195;-64
2021/09/24 05:23:42;;;;;;;18.25;8.55;;;;;;;;;;2080970;28;20559;-67
2021/09/24 05:24:42;;;;;;;15.80;8.52;;;;;;;;;;2081081;28;20187;-65
2021/09/24 05:25:42;;;;;;;19.45;9.43;;;;;;;;;;2072182;28;20192;-66
2021/09/24 05:26:43;;;;;;;11.00;8.32;;;;;;;;;;2072295;28;20200;-66
2021/09/24 05:27:43;;;;;;;18.90;8.30;;;;;;;;;;2072316;28;20295;-66
2021/09/24 05:28:44;;;;;;;14.73;9.05;;;;;;;;;;2071955;28;20725;-67
2021/09/24 05:29:44;;;;;;;13.98;8.52;;;;;;;;;;2069547;28;20173;-66
2021/09/24 05:30:44;;;;;;;19.35;9.52;;;;;;;;;;2079164;28;20189;-67
2021/09/24 05:31:46;;;;;;;17.35;9.25;;;;;;;;;;2071443;28;20211;-67
2021/09/24 05:32:46;;;;;;;14.73;9.20;;;;;;;;;;2072648;28;20165;-66
2021/09/24 05:33:46;;;;;;;15.63;9.50;;;;;;;;;;2079250;28;20185;-66
2021/09/24 05:34:47;;;;;;;17.02;9.57;;;;;;;;;;2081700;28;20188;-66
2021/09/24 05:35:47;;;;;;;16.10;8.88;;;;;;;;;;2080911;28;20207;-66
2021/09/24 05:36:47;;;;;;;16.40;9.82;;;;;;;;;;2081249;28;20170;-66
2021/09/24 05:37:47;;;;;;;13.20;9.35;;;;;;;;;;2079029;28;20181;-67
2021/09/24 05:38:48;;;;;;;12.50;9.75;;;;;;;;;;2080601;28;20180;-66
2021/09/24 05:39:48;;;;;;;13.15;9.00;;;;;;;;;;2070487;28;20176;-66
2021/09/24 05:40:48;;;;;;;13.55;10.07;;;;;;;;;;2072016;28;20189;-66
2021/09/24 05:41:49;;;;;;;15.43;10.35;;;;;;;;;;2078615;28;20228;-66
2021/09/24 05:42:50;;;;;;;15.02;9.75;;;;;;;;;;2079121;28;20711;-67
2021/09/24 05:43:50;;;;;;;17.80;10.52;;;;;;;;;;2071774;28;20264;-66
2021/09/24 05:44:50;;;;;;;13.13;9.35;;;;;;;;;;2071811;28;20181;-66
2021/09/24 05:45:50;;;;;;;18.90;10.75;;;;;;;;;;2077177;28;20226;-66
2021/09/24 05:46:51;;;;;;;17.38;10.70;;;;;;;;;;2070571;28;20185;-66
2021/09/24 05:47:51;;;;;;;19.23;10.85;;;;;;;;;;2071421;28;20617;-65
2021/09/24 05:48:51;;;;;;;17.40;10.52;;;;;;;;;;2077423;28;20861;-63
2021/09/24 05:49:51;;;;;;;18.23;10.85;;;;;;;;;;2078789;28;20172;-65
2021/09/24 05:50:52;;;;;;;18.20;11.70;;;;;;;;;;2080099;28;20173;-65
2021/09/24 05:51:52;;;;;;;18.38;11.18;;;;;;;;;;2080076;28;20181;-64
2021/09/24 05:52:54;;;;;;;19.30;10.68;;;;;;;;;;2079338;28;20173;-65
2021/09/24 05:53:54;;;;;;;20.42;11.35;;;;;;;;;;2079313;28;20173;-65
2021/09/24 05:54:54;;;;;;;18.48;10.98;;;;;;;;;;2079208;28;20257;-65
2021/09/24 05:55:55;;;;;;;15.95;11.23;;;;;;;;;;2079919;28;20176;-65
2021/09/24 05:56:56;;;;;;;18.15;10.85;;;;;;;;;;2076969;28;20195;-64
2021/09/24 05:57:56;;;;;;;17.92;11.85;;;;;;;;;;2069713;28;20636;-63